Time;durP1;ratioP1;P1;durP2;ratioP2;P2;SDS_P1;SDS_P2;PMS_P1;PMS_P2;Temp;Humidity;BMP_temperature;BMP_pressure;BME280_temperature;BME280_humidity;BME280_pressure;Samples;Min_cycle;Max_cycle;Signal;HPM_P1;HPM_P2
2022/04/13 00:00:22;;;;;;;51.15;26.40;;;;;;;-0.02;76.46;98556.03;1752909;81;22084;-57
2022/04/13 00:02:50;;;;;;;52.40;25.60;;;;;;;-0.02;77.28;98554.70;1752820;81;20958;-57
2022/04/13 00:05:16;;;;;;;51.75;24.98;;;;;;;-0.03;78.38;98559.72;1753352;81;20956;-57
2022/04/13 00:07:42;;;;;;;55.85;28.57;;;;;;;-0.10;82.77;98557.02;1769174;79;21035;-58
2022/04/13 00:10:08;;;;;;;58.02;27.42;;;;;;;-0.08;82.78;98554.18;1770809;81;21401;-57
2022/04/13 00:12:34;;;;;;;50.05;27.80;;;;;;;-0.12;84.86;98554.25;1768587;81;21454;-58
2022/04/13 00:15:02;;;;;;;52.73;28.67;;;;;;;-0.13;84.36;98557.42;1746531;81;20904;-57
2022/04/13 00:17:29;;;;;;;46.50;29.52;;;;;;;-0.14;86.24;98557.62;1753408;81;20942;-57
2022/04/13 00:19:56;;;;;;;54.73;28.05;;;;;;;-0.17;87.12;98555.34;1753112;81;21017;-57
2022/04/13 00:22:22;;;;;;;56.37;29.27;;;;;;;-0.14;84.47;98557.62;1766385;81;21015;-57
2022/04/13 00:24:48;;;;;;;53.25;27.77;;;;;;;-0.14;83.69;98563.77;1739109;81;21535;-57
2022/04/13 00:27:14;;;;;;;54.55;30.30;;;;;;;-0.17;84.30;98564.18;1738898;81;21570;-57
2022/04/13 00:29:39;;;;;;;56.58;33.78;;;;;;;-0.21;86.83;98561.59;1744839;81;20964;-57
2022/04/13 00:32:07;;;;;;;68.10;29.77;;;;;;;-0.25;86.99;98559.02;1759834;81;21509;-58
2022/04/13 00:34:33;;;;;;;59.23;27.73;;;;;;;-0.26;86.72;98565.34;1741005;81;21444;-57
2022/04/13 00:36:59;;;;;;;54.42;29.25;;;;;;;-0.26;84.49;98563.19;1736055;81;21421;-57
2022/04/13 00:39:25;;;;;;;47.53;26.57;;;;;;;-0.29;83.60;98564.41;1733749;82;20919;-57
2022/04/13 00:42:00;;;;;;;49.65;26.68;;;;;;;-0.31;86.13;98561.13;1746513;81;21029;-57
2022/04/13 00:44:29;;;;;;;41.08;24.37;;;;;;;-0.33;83.81;98560.00;1758011;81;21461;-57
2022/04/13 00:46:56;;;;;;;46.00;25.72;;;;;;;-0.34;83.54;98566.34;1760761;81;20961;-57
2022/04/13 00:49:23;;;;;;;54.50;28.52;;;;;;;-0.37;83.46;98569.38;1758642;81;21050;-58
2022/04/13 00:51:50;;;;;;;55.40;28.38;;;;;;;-0.37;84.68;98560.06;1753738;81;20980;-57
2022/04/13 00:54:17;;;;;;;56.23;28.60;;;;;;;-0.37;85.50;98559.24;1755150;79;21075;-57
2022/04/13 00:56:43;;;;;;;51.13;29.02;;;;;;;-0.36;86.43;98556.89;1739223;82;21055;-57
2022/04/13 00:59:11;;;;;;;53.23;29.25;;;;;;;-0.36;87.01;98557.70;1750095;81;20893;-57
2022/04/13 01:01:37;;;;;;;51.02;25.43;;;;;;;-0.35;87.51;98554.53;1753403;81;22050;-57
2022/04/13 01:04:04;;;;;;;49.88;26.77;;;;;;;-0.34;82.78;98562.35;1756508;81;20876;-58
2022/04/13 01:06:30;;;;;;;46.77;28.85;;;;;;;-0.37;84.38;98561.91;1756846;81;21430;-58
2022/04/13 01:08:56;;;;;;;49.10;27.50;;;;;;;-0.44;86.17;98563.19;1760215;79;20904;-57
2022/04/13 01:11:22;;;;;;;43.73;25.72;;;;;;;-0.44;84.05;98561.04;1743700;81;21365;-58
2022/04/13 01:13:47;;;;;;;46.28;25.45;;;;;;;-0.48;82.33;98559.30;1761098;79;21530;-58
2022/04/13 01:16:13;;;;;;;49.08;25.60;;;;;;;-0.53;83.93;98552.39;1739061;82;20880;-57
2022/04/13 01:18:40;;;;;;;43.90;25.88;;;;;;;-0.58;84.68;98558.83;1746718;81;20889;-57
2022/04/13 01:21:10;;;;;;;44.88;24.15;;;;;;;-0.60;82.84;98553.70;1739921;81;21376;-58
2022/04/13 01:23:33;;;;;;;43.17;23.38;;;;;;;-0.62;83.25;98550.90;1738602;81;21024;-57
2022/04/13 01:25:59;;;;;;;49.30;24.07;;;;;;;-0.63;82.84;98551.41;1727960;81;21202;-58
2022/04/13 01:28:25;;;;;;;43.50;23.92;;;;;;;-0.64;83.17;98558.27;1752995;81;21547;-57
2022/04/13 01:30:51;;;;;;;48.83;25.92;;;;;;;-0.64;85.11;98546.28;1740692;81;20896;-57
2022/04/13 01:33:17;;;;;;;44.20;24.77;;;;;;;-0.57;87.36;98555.96;1753703;81;21473;-58
2022/04/13 01:35:43;;;;;;;47.80;25.27;;;;;;;-0.50;85.90;98553.86;1766369;81;20975;-57
2022/04/13 01:38:09;;;;;;;46.23;27.07;;;;;;;-0.44;85.61;98554.38;1755043;79;22394;-57
2022/04/13 01:40:35;;;;;;;48.40;25.37;;;;;;;-0.46;86.93;98549.77;1744744;81;20888;-57
2022/04/13 01:43:03;;;;;;;44.58;25.32;;;;;;;-0.46;87.33;98546.59;1713205;81;21450;-57
2022/04/13 01:45:31;;;;;;;39.88;24.85;;;;;;;-0.45;86.11;98544.24;1753188;81;20980;-57
2022/04/13 01:47:57;;;;;;;44.98;25.97;;;;;;;-0.44;86.43;98547.22;1753256;81;21000;-57
2022/04/13 01:50:23;;;;;;;52.15;25.92;;;;;;;-0.47;87.03;98541.47;1753766;81;21153;-57
2022/04/13 01:52:49;;;;;;;44.50;24.50;;;;;;;-0.48;87.47;98539.83;1753176;81;21496;-57
2022/04/13 01:55:15;;;;;;;42.85;23.47;;;;;;;-0.49;86.55;98539.52;1753700;81;20944;-57
2022/04/13 01:57:41;;;;;;;43.48;24.47;;;;;;;-0.54;86.58;98544.09;1741390;81;20880;-57
2022/04/13 02:00:10;;;;;;;45.80;24.15;;;;;;;-0.58;86.95;98541.52;1748193;81;20984;-57
2022/04/13 02:02:36;;;;;;;38.92;23.92;;;;;;;-0.58;87.12;98540.19;1753285;81;21997;-57
2022/04/13 02:05:03;;;;;;;40.15;22.30;;;;;;;-0.58;86.23;98547.66;1753210;81;20884;-57
2022/04/13 02:07:29;;;;;;;38.00;21.48;;;;;;;-0.60;84.99;98554.18;1754036;81;21472;-57
2022/04/13 02:09:55;;;;;;;41.80;23.22;;;;;;;-0.65;83.21;98549.45;1761513;79;20917;-57
2022/04/13 02:12:21;;;;;;;39.35;21.97;;;;;;;-0.71;82.15;98549.41;1743362;81;21406;-57
2022/04/13 02:14:47;;;;;;;52.05;25.85;;;;;;;-0.73;82.50;98550.94;1753127;81;21559;-57
2022/04/13 02:17:16;;;;;;;42.73;23.57;;;;;;;-0.74;84.66;98552.47;1765412;81;20940;-57
2022/04/13 02:19:41;;;;;;;35.55;21.55;;;;;;;-0.74;84.95;98549.80;1748057;81;21012;-58
2022/04/13 02:22:08;;;;;;;38.35;22.55;;;;;;;-0.77;84.31;98545.70;1739034;82;20992;-57
2022/04/13 02:24:34;;;;;;;42.93;22.60;;;;;;;-0.80;84.01;98550.06;1746656;81;21453;-57
2022/04/13 02:27:03;;;;;;;42.13;21.95;;;;;;;-0.83;82.79;98551.80;1739126;81;21564;-57
2022/04/13 02:29:29;;;;;;;47.62;23.50;;;;;;;-0.90;83.28;98553.06;1751915;81;21481;-57
2022/04/13 02:31:55;;;;;;;50.70;24.43;;;;;;;-0.96;86.90;98545.03;1770955;81;20960;-57
2022/04/13 02:34:21;;;;;;;45.23;24.95;;;;;;;-0.95;86.62;98550.66;1744853;81;21464;-57
2022/04/13 02:36:47;;;;;;;38.95;23.15;;;;;;;-0.93;87.65;98548.14;1743987;81;20866;-57
2022/04/13 02:39:13;;;;;;;49.18;26.55;;;;;;;-0.92;84.98;98548.97;1753823;81;21315;-57
2022/04/13 02:41:39;;;;;;;53.52;26.65;;;;;;;-0.93;87.26;98548.14;1739476;82;20951;-57
2022/04/13 02:44:06;;;;;;;41.92;22.77;;;;;;;-0.90;88.08;98547.75;1739139;81;21437;-57
2022/04/13 02:46:32;;;;;;;40.17;23.15;;;;;;;-0.90;88.33;98550.41;1744534;81;21251;-57
2022/04/13 02:48:58;;;;;;;56.20;25.05;;;;;;;-0.91;87.62;98547.44;1753231;81;20854;-57
2022/04/13 02:51:24;;;;;;;49.65;25.12;;;;;;;-0.91;86.99;98540.78;1748813;81;22138;-57
2022/04/13 02:53:50;;;;;;;51.77;26.27;;;;;;;-0.93;88.13;98547.33;1758741;79;20888;-57
2022/04/13 02:56:17;;;;;;;46.23;23.12;;;;;;;-0.91;86.73;98544.77;1761458;81;21114;-57
2022/04/13 02:58:43;;;;;;;44.40;23.70;;;;;;;-0.90;87.78;98543.75;1746780;81;21004;-57
2022/04/13 03:01:09;;;;;;;42.53;24.57;;;;;;;-0.89;88.42;98550.72;1753392;81;21048;-57
2022/04/13 03:03:35;;;;;;;39.55;22.13;;;;;;;-0.87;86.89;98546.02;1753281;81;21544;-57
2022/04/13 03:06:01;;;;;;;39.05;20.97;;;;;;;-0.84;87.73;98546.67;1760126;81;20961;-57
2022/04/13 03:08:27;;;;;;;37.67;21.25;;;;;;;-0.82;86.83;98541.46;1747724;81;20967;-57
2022/04/13 03:10:53;;;;;;;35.35;21.80;;;;;;;-0.83;86.10;98545.14;1738708;81;22350;-57
2022/04/13 03:13:19;;;;;;;42.17;23.65;;;;;;;-0.81;86.34;98544.43;1751858;79;20888;-57
2022/04/13 03:15:45;;;;;;;57.17;23.42;;;;;;;-0.84;86.90;98549.33;1743619;81;21327;-57
2022/04/13 03:18:10;;;;;;;35.83;20.27;;;;;;;-0.88;87.70;98546.22;1753393;81;20849;-57
2022/04/13 03:20:36;;;;;;;45.05;20.68;;;;;;;-0.88;86.99;98549.70;1742279;81;20888;-57
2022/04/13 03:23:02;;;;;;;35.17;20.55;;;;;;;-0.89;85.57;98549.90;1738946;81;20957;-57
2022/04/13 03:25:28;;;;;;;45.03;21.15;;;;;;;-0.97;87.55;98550.04;1739065;82;20861;-57
2022/04/13 03:27:54;;;;;;;34.13;21.30;;;;;;;-0.98;87.60;98547.89;1756834;79;21230;-58
2022/04/13 03:30:22;;;;;;;50.12;23.90;;;;;;;-0.98;86.72;98549.22;1745295;81;20941;-57
2022/04/13 03:32:50;;;;;;;36.80;19.40;;;;;;;-0.92;86.64;98556.95;1765846;81;21429;-57
2022/04/13 03:35:16;;;;;;;44.70;22.62;;;;;;;-0.89;87.04;98553.37;1753143;81;21442;-57
2022/04/13 03:37:42;;;;;;;50.98;21.25;;;;;;;-0.86;87.83;98570.28;1733324;81;20951;-57
2022/04/13 03:40:10;;;;;;;48.23;23.12;;;;;;;-0.83;87.22;98565.61;1739245;81;21094;-57
2022/04/13 03:42:37;;;;;;;38.48;22.20;;;;;;;-0.86;87.16;98565.47;1741114;81;21468;-57
2022/04/13 03:45:09;;;;;;;34.70;19.67;;;;;;;-0.87;86.73;98568.64;1753647;81;21009;-58
2022/04/13 03:47:35;;;;;;;38.80;20.68;;;;;;;-0.85;85.70;98573.79;1753218;81;21000;-57
2022/04/13 03:50:01;;;;;;;78.50;23.90;;;;;;;-0.87;86.27;98579.28;1763247;81;20988;-58
2022/04/13 03:52:26;;;;;;;45.30;21.80;;;;;;;-0.89;86.68;98577.84;1746155;81;21700;-57
2022/04/13 03:54:52;;;;;;;35.78;20.77;;;;;;;-0.91;86.45;98579.88;1746213;81;20876;-57
2022/04/13 03:57:18;;;;;;;43.25;20.00;;;;;;;-0.94;87.17;98586.41;1762384;81;20904;-58
2022/04/13 03:59:44;;;;;;;40.63;21.93;;;;;;;-0.97;87.25;98589.44;1754334;81;21348;-58
2022/04/13 04:02:10;;;;;;;41.58;21.48;;;;;;;-0.98;87.51;98596.28;1749165;81;21031;-57
2022/04/13 04:04:36;;;;;;;40.65;22.40;;;;;;;-1.01;86.51;98598.83;1743848;81;21485;-57
2022/04/13 04:07:02;;;;;;;39.05;22.15;;;;;;;-1.05;87.60;98599.39;1764102;81;20913;-57
2022/04/13 04:09:28;;;;;;;41.00;24.45;;;;;;;-1.04;87.92;98597.86;1759488;79;21035;-57
2022/04/13 04:11:54;;;;;;;44.25;24.43;;;;;;;-1.00;86.90;98592.49;1746413;81;21488;-57
2022/04/13 04:14:20;;;;;;;46.05;23.32;;;;;;;-0.93;86.27;98596.03;1753315;81;20873;-57
2022/04/13 04:16:45;;;;;;;44.38;22.82;;;;;;;-0.87;86.86;98593.09;1753101;81;22386;-57
2022/04/13 04:19:11;;;;;;;50.85;25.48;;;;;;;-0.83;86.89;98594.88;1758825;79;20896;-57
2022/04/13 04:21:37;;;;;;;38.83;21.82;;;;;;;-0.86;87.29;98599.55;1739253;82;20924;-57
2022/04/13 04:24:05;;;;;;;42.48;24.40;;;;;;;-0.86;85.75;98600.06;1741498;81;20873;-57
2022/04/13 04:26:31;;;;;;;44.42;21.68;;;;;;;-0.92;86.57;98595.53;1753458;81;21394;-57
2022/04/13 04:28:56;;;;;;;38.83;22.77;;;;;;;-0.94;85.70;98592.21;1749704;81;21515;-57
2022/04/13 04:34:07;;;;;;;54.80;27.75;;;;;;;-0.98;86.63;98590.45;1749229;81;21031;-57
2022/04/13 04:36:34;;;;;;;67.95;29.05;;;;;;;-0.94;86.63;98585.08;1749436;81;21437;-57
2022/04/13 04:39:00;;;;;;;64.75;29.30;;;;;;;-0.83;86.24;98588.23;1697943;82;21067;-57
2022/04/13 04:41:25;;;;;;;56.45;28.83;;;;;;;-0.73;86.94;98586.87;1738641;82;21854;-57
2022/04/13 04:43:51;;;;;;;60.70;29.50;;;;;;;-0.66;87.11;98586.41;1747564;81;20948;-57
2022/04/13 04:46:18;;;;;;;58.08;27.73;;;;;;;-0.61;87.21;98584.48;1758804;81;21593;-57
2022/04/13 04:48:45;;;;;;;57.85;27.15;;;;;;;-0.52;87.84;98588.64;1769795;79;21020;-57
2022/04/13 04:51:12;;;;;;;57.78;27.67;;;;;;;-0.40;87.44;98592.93;1753558;81;21008;-57
2022/04/13 04:53:38;;;;;;;51.58;29.42;;;;;;;-0.26;87.13;98596.48;1762069;79;21842;-57
2022/04/13 04:56:04;;;;;;;53.02;29.42;;;;;;;-0.15;86.67;98594.11;1741719;81;20857;-57
2022/04/13 04:58:30;;;;;;;49.18;27.30;;;;;;;-0.07;86.63;98599.27;1753188;81;20945;-57
2022/04/13 05:00:56;;;;;;;44.53;21.20;;;;;;;0.00;86.63;98593.98;1753049;81;20913;-57
2022/04/13 05:03:22;;;;;;;77.45;26.37;;;;;;;0.12;84.32;98601.70;1751992;81;20917;-57
2022/04/13 05:05:48;;;;;;;41.68;22.60;;;;;;;0.23;85.19;98606.97;1750749;81;21174;-57
2022/04/13 05:08:14;;;;;;;37.42;19.27;;;;;;;0.42;83.56;98605.39;1748860;81;21406;-57
2022/04/13 05:10:50;;;;;;;43.78;22.67;;;;;;;0.61;82.75;98609.98;1748291;81;20863;-57
2022/04/13 05:13:08;;;;;;;46.95;25.25;;;;;;;0.76;82.29;98611.13;1736047;81;20977;-57
2022/04/13 05:15:34;;;;;;;45.73;22.60;;;;;;;0.84;82.00;98614.94;1748910;81;20875;-57
2022/04/13 05:18:00;;;;;;;60.35;23.70;;;;;;;0.93;82.58;98619.05;1745912;81;22209;-57
2022/04/13 05:20:26;;;;;;;39.38;22.07;;;;;;;1.01;82.70;98614.04;1766520;81;20980;-57
2022/04/13 05:22:52;;;;;;;46.40;23.52;;;;;;;1.13;81.99;98617.77;1757573;79;20869;-57
2022/04/13 05:25:18;;;;;;;46.58;26.90;;;;;;;1.21;81.71;98614.89;1756687;81;20854;-57
2022/04/13 05:27:44;;;;;;;67.05;34.18;;;;;;;1.35;81.74;98611.69;1753335;81;21583;-57
2022/04/13 05:30:14;;;;;;;58.48;33.28;;;;;;;1.48;81.86;98610.36;1764798;81;21579;-57
2022/04/13 05:32:57;;;;;;;58.33;31.45;;;;;;;1.59;81.73;98610.23;1749773;81;21334;-57
2022/04/13 05:35:22;;;;;;;33.95;18.77;;;;;;;1.69;81.08;98607.44;1753117;81;21047;-57
2022/04/13 05:37:48;;;;;;;46.65;22.45;;;;;;;1.83;79.73;98608.77;1735024;81;21489;-57
2022/04/13 05:40:13;;;;;;;42.05;20.62;;;;;;;1.93;79.81;98615.31;1753663;81;20944;-57
2022/04/13 05:42:39;;;;;;;48.95;24.87;;;;;;;2.07;78.74;98616.11;1753294;81;21700;-57
2022/04/13 05:45:07;;;;;;;61.10;29.23;;;;;;;2.17;78.03;98619.16;1764306;81;20860;-57
2022/04/13 05:47:34;;;;;;;49.83;22.25;;;;;;;2.28;78.08;98623.53;1768589;80;21484;-57
2022/04/13 05:50:02;;;;;;;40.85;23.75;;;;;;;2.47;77.97;98626.11;1749233;81;20965;-57
2022/04/13 05:52:27;;;;;;;52.88;22.35;;;;;;;2.76;78.27;98629.28;1752183;81;20997;-57
2022/04/13 05:54:53;;;;;;;37.98;21.15;;;;;;;3.03;78.29;98629.42;1753156;81;21153;-57
2022/04/13 05:57:19;;;;;;;59.75;25.43;;;;;;;3.44;77.71;98630.77;1753384;81;20935;-57
2022/04/13 05:59:45;;;;;;;45.05;23.52;;;;;;;3.87;78.59;98633.47;1751457;81;20845;-57
2022/04/13 06:02:11;;;;;;;60.05;31.17;;;;;;;4.25;77.96;98627.89;1744323;81;20924;-57
2022/04/13 06:04:37;;;;;;;50.83;28.00;;;;;;;4.37;75.93;98623.13;1745490;81;21052;-57
2022/04/13 06:07:03;;;;;;;52.88;28.65;;;;;;;4.53;76.51;98629.23;1752409;80;21534;-57
2022/04/13 06:09:29;;;;;;;37.00;22.62;;;;;;;4.65;75.78;98638.15;1746109;81;20992;-57
2022/04/13 06:11:55;;;;;;;36.88;18.65;;;;;;;4.69;74.40;98628.58;1739691;80;20837;-57
2022/04/13 06:14:21;;;;;;;39.58;18.27;;;;;;;4.73;73.09;98627.09;1751648;81;20989;-57
2022/04/13 06:16:47;;;;;;;39.75;22.35;;;;;;;4.74;72.43;98627.91;1753700;81;21000;-57
2022/04/13 06:19:13;;;;;;;32.83;18.85;;;;;;;4.87;72.84;98629.59;1754366;80;21435;-58
2022/04/13 06:21:39;;;;;;;32.65;18.32;;;;;;;5.08;70.26;98631.77;1757713;81;21039;-57
2022/04/13 06:24:06;;;;;;;37.67;19.10;;;;;;;5.24;70.01;98634.33;1744235;81;20880;-57
2022/04/13 06:26:32;;;;;;;36.90;19.65;;;;;;;5.47;70.42;98630.35;1748103;81;21441;-58
2022/04/13 06:28:58;;;;;;;31.73;18.10;;;;;;;5.76;69.23;98629.14;1741875;81;20993;-57
2022/04/13 06:31:23;;;;;;;38.33;17.82;;;;;;;6.11;69.55;98629.15;1755306;81;21697;-58
2022/04/13 06:33:49;;;;;;;39.23;18.92;;;;;;;6.52;69.50;98629.48;1749231;79;21554;-57
2022/04/13 06:36:15;;;;;;;33.88;17.17;;;;;;;6.99;67.97;98630.64;1748639;81;21625;-57
2022/04/13 06:38:41;;;;;;;34.23;18.12;;;;;;;7.39;69.65;98631.08;1753068;81;20925;-57
2022/04/13 06:41:08;;;;;;;35.33;22.45;;;;;;;7.43;65.12;98630.86;1746072;80;22047;-58
2022/04/13 06:43:34;;;;;;;31.20;16.05;;;;;;;7.57;66.75;98632.19;1751867;80;21077;-58
2022/04/13 06:46:00;;;;;;;25.77;14.83;;;;;;;7.67;65.16;98636.39;1747044;80;21687;-57
2022/04/13 06:48:26;;;;;;;24.92;14.50;;;;;;;7.70;64.13;98637.80;1753152;79;20883;-57
2022/04/13 06:50:52;;;;;;;33.95;17.07;;;;;;;7.74;63.18;98640.28;1747324;80;20903;-58
2022/04/13 06:53:18;;;;;;;30.17;14.93;;;;;;;7.73;64.02;98640.81;1747299;80;21220;-58
2022/04/13 06:55:47;;;;;;;29.60;19.05;;;;;;;8.22;62.30;98634.78;1748508;80;21887;-58
2022/04/13 06:58:16;;;;;;;32.98;16.05;;;;;;;8.81;61.75;98634.48;1747949;80;21023;-57
2022/04/13 07:00:43;;;;;;;36.50;16.55;;;;;;;9.30;59.77;98635.23;1748113;80;20993;-58
2022/04/13 07:03:09;;;;;;;31.35;15.95;;;;;;;9.94;59.30;98625.47;1747715;81;21024;-58
2022/04/13 07:05:35;;;;;;;27.98;14.60;;;;;;;10.57;58.70;98625.02;1750867;81;21024;-57
2022/04/13 07:08:02;;;;;;;29.60;17.00;;;;;;;11.38;58.26;98630.67;1743608;80;21982;-58
2022/04/13 07:10:32;;;;;;;26.70;15.55;;;;;;;11.99;57.69;98625.25;1743901;80;21040;-58
2022/04/13 07:12:58;;;;;;;22.13;14.45;;;;;;;12.53;55.67;98620.48;1742730;80;21173;-58
2022/04/13 07:15:24;;;;;;;23.85;13.98;;;;;;;12.64;45.56;98622.61;1737508;81;21052;-58
2022/04/13 07:17:50;;;;;;;24.72;13.75;;;;;;;12.78;43.62;98620.11;1744476;80;21574;-58
2022/04/13 07:20:17;;;;;;;33.67;14.33;;;;;;;13.62;49.56;98620.42;1741687;80;21137;-58
2022/04/13 07:22:47;;;;;;;23.67;13.72;;;;;;;14.31;49.44;98613.77;1747965;80;21150;-58
2022/04/13 07:25:13;;;;;;;25.62;13.88;;;;;;;14.97;47.37;98614.91;1718002;81;21062;-58
2022/04/13 07:27:39;;;;;;;30.00;18.00;;;;;;;15.85;46.65;98613.86;1742606;81;20933;-58
2022/04/13 07:30:06;;;;;;;18.95;11.57;;;;;;;15.92;44.92;98612.92;1750196;80;20934;-58
2022/04/13 07:32:32;;;;;;;27.42;14.13;;;;;;;15.73;40.87;98620.62;1740568;80;21959;-58
2022/04/13 07:35:02;;;;;;;32.80;16.55;;;;;;;16.49;43.62;98615.69;1737618;80;20953;-58
2022/04/13 07:37:28;;;;;;;23.55;12.43;;;;;;;16.97;41.64;98613.08;1738217;80;21005;-58
2022/04/13 07:39:54;;;;;;;44.70;27.98;;;;;;;17.64;41.02;98612.62;1737008;80;21085;-58
2022/04/13 07:42:23;;;;;;;24.55;15.95;;;;;;;17.89;39.16;98607.66;1744429;80;20992;-58
2022/04/13 07:44:49;;;;;;;23.42;13.60;;;;;;;18.64;40.65;98611.41;1746282;80;39127;-58
2022/04/13 07:47:15;;;;;;;132.12;86.28;;;;;;;18.76;39.50;98602.81;1742380;80;20944;-58
2022/04/13 07:49:42;;;;;;;69.55;17.73;;;;;;;18.73;34.38;98604.84;1739831;80;21640;-58
2022/04/13 07:52:08;;;;;;;27.67;13.90;;;;;;;19.29;36.06;98605.08;1736243;80;21476;-58
2022/04/13 07:54:34;;;;;;;14.47;9.05;;;;;;;19.68;35.72;98608.26;1744727;80;21088;-58
2022/04/13 07:57:00;;;;;;;11.03;7.83;;;;;;;20.33;34.44;98598.86;1745645;80;21129;-58
2022/04/13 07:59:27;;;;;;;10.55;8.20;;;;;;;19.72;32.96;98599.02;1743012;80;21397;-58
2022/04/13 08:01:54;;;;;;;16.50;9.10;;;;;;;19.28;28.68;98596.59;1741714;80;20960;-58
2022/04/13 08:04:20;;;;;;;23.55;9.55;;;;;;;20.18;31.41;98595.30;1727790;80;21076;-59
2022/04/13 08:06:46;;;;;;;14.00;6.67;;;;;;;20.82;30.87;98590.48;1727254;80;20997;-58
2022/04/13 08:09:12;;;;;;;12.95;6.47;;;;;;;21.16;28.42;98587.83;1735153;80;21127;-58
2022/04/13 08:11:37;;;;;;;8.30;6.03;;;;;;;22.04;29.90;98586.72;1745354;80;20953;-58
2022/04/13 08:14:03;;;;;;;11.00;6.03;;;;;;;22.04;27.15;98587.53;1746269;79;21737;-58
2022/04/13 08:16:29;;;;;;;10.93;6.37;;;;;;;22.32;24.43;98581.42;1745148;80;21468;-58
2022/04/13 08:18:55;;;;;;;8.63;6.62;;;;;;;22.15;22.85;98584.61;1734955;80;20880;-58
2022/04/13 08:21:21;;;;;;;12.28;7.35;;;;;;;21.44;23.11;98576.52;1758195;80;21724;-58
2022/04/13 08:23:47;;;;;;;10.20;6.20;;;;;;;22.20;25.12;98577.47;1734745;79;20932;-58
2022/04/13 08:26:13;;;;;;;15.00;6.70;;;;;;;21.96;23.34;98578.77;1740664;81;21503;-58
2022/04/13 08:28:39;;;;;;;9.73;6.35;;;;;;;22.98;25.62;98568.75;1738592;80;20876;-58
2022/04/13 08:31:07;;;;;;;10.00;7.40;;;;;;;23.19;25.15;98559.73;1745923;81;20941;-58
2022/04/13 08:33:33;;;;;;;9.30;6.47;;;;;;;23.56;21.68;98557.64;1739273;81;21556;-58
2022/04/13 08:35:59;;;;;;;11.60;6.72;;;;;;;24.16;23.52;98560.45;1739829;81;20881;-58
2022/04/13 08:38:25;;;;;;;9.70;6.53;;;;;;;24.52;22.53;98566.33;1729442;81;20984;-58
2022/04/13 08:40:58;;;;;;;13.18;7.47;;;;;;;23.70;20.81;98560.03;1733440;81;20964;-59
2022/04/13 08:43:52;;;;;;;9.70;6.35;;;;;;;24.75;22.76;98562.33;1740910;79;21114;-58
2022/04/13 08:46:23;;;;;;;17.15;8.18;;;;;;;24.64;21.79;98557.12;1686903;83;21130;-59
2022/04/13 08:48:51;;;;;;;10.93;6.72;;;;;;;25.14;21.28;98548.02;1723200;81;21409;-58
2022/04/13 08:51:17;;;;;;;9.05;6.17;;;;;;;25.60;21.44;98543.99;1734977;81;21543;-59
2022/04/13 08:53:44;;;;;;;8.65;5.97;;;;;;;26.20;21.30;98542.95;1744828;80;21075;-59
2022/04/13 08:56:11;;;;;;;11.28;6.70;;;;;;;26.83;20.78;98535.44;1742062;81;21038;-59
2022/04/13 08:59:03;;;;;;;10.15;6.10;;;;;;;27.80;21.67;98541.11;1717013;82;21273;-59
2022/04/13 09:01:55;;;;;;;12.40;6.28;;;;;;;27.85;20.13;98539.15;1742924;81;21067;-59
2022/04/13 09:04:21;;;;;;;10.08;6.28;;;;;;;28.45;19.48;98541.72;1741609;80;21029;-58
2022/04/13 09:06:47;;;;;;;14.53;5.83;;;;;;;29.00;18.56;98542.55;1742948;81;20940;-58
2022/04/13 09:09:31;;;;;;;8.18;5.95;;;;;;;29.21;17.79;98539.86;1770702;80;20933;-59
2022/04/13 09:11:58;;;;;;;12.05;6.22;;;;;;;29.33;18.21;98540.13;1773285;80;21318;-58
2022/04/13 09:14:27;;;;;;;8.23;5.35;;;;;;;28.90;16.61;98539.91;1750440;80;20995;-59
2022/04/13 09:16:53;;;;;;;8.85;5.28;;;;;;;28.90;16.61;98539.91;1741161;81;21032;-58
2022/04/13 09:19:20;;;;;;;7.97;5.03;;;;;;;29.63;18.09;98541.86;1734092;81;23160;-58
2022/04/13 09:21:46;;;;;;;7.53;4.78;;;;;;;29.85;17.43;98546.32;1738869;81;20993;-58
2022/04/13 09:24:11;;;;;;;16.25;4.67;;;;;;;28.48;15.50;98544.55;1735038;81;21991;-58
2022/04/13 09:26:37;;;;;;;6.15;4.35;;;;;;;29.31;17.54;98541.12;1732796;82;20842;-58
2022/04/13 09:29:03;;;;;;;7.12;4.45;;;;;;;30.28;17.58;98534.64;1742314;81;20909;-59
2022/04/13 09:31:30;;;;;;;8.40;5.00;;;;;;;28.55;15.82;98545.22;1758838;80;21582;-58
2022/04/13 09:33:56;;;;;;;9.70;6.90;;;;;;;28.65;17.08;98536.13;1754223;80;21029;-58
2022/04/13 09:36:22;;;;;;;6.50;4.90;;;;;;;26.98;17.82;98542.00;1748149;80;21739;-58
2022/04/13 09:38:49;;;;;;;5.47;4.20;;;;;;;27.27;16.87;98534.89;1727548;81;20967;-58
2022/04/13 09:41:15;;;;;;;7.63;5.10;;;;;;;26.42;17.58;98538.00;1773435;80;20981;-58
2022/04/13 09:43:41;;;;;;;7.17;5.60;;;;;;;24.48;19.55;98538.56;1751511;80;20846;-58
2022/04/13 09:46:08;;;;;;;7.10;4.65;;;;;;;22.48;21.66;98536.22;1684296;83;21594;-58
2022/04/13 09:48:34;;;;;;;7.53;5.37;;;;;;;21.66;22.63;98542.27;1752127;80;21104;-58
2022/04/13 09:51:00;;;;;;;7.65;5.03;;;;;;;20.34;24.33;98539.13;1771430;80;21015;-58
2022/04/13 09:53:26;;;;;;;16.60;6.80;;;;;;;19.94;25.03;98539.47;1769923;79;20858;-58
2022/04/13 09:56:04;;;;;;;12.23;6.90;;;;;;;19.66;25.26;98528.06;1744401;81;22327;-58
2022/04/13 09:58:30;;;;;;;10.10;6.60;;;;;;;19.45;25.58;98532.02;1753296;80;21072;-57
2022/04/13 10:01:00;;;;;;;13.25;7.40;;;;;;;18.72;27.71;98535.17;1753586;80;26437;-58
2022/04/13 10:03:24;;;;;;;13.22;7.40;;;;;;;18.18;28.20;98528.44;1729562;81;21008;-58
2022/04/13 10:05:53;;;;;;;13.55;7.40;;;;;;;17.94;28.91;98525.27;1734937;81;20900;-58
2022/04/13 10:08:24;;;;;;;24.02;8.35;;;;;;;17.12;29.68;98529.23;1750814;81;21018;-57
2022/04/13 10:10:58;;;;;;;14.00;8.48;;;;;;;17.05;29.55;98529.66;1750330;80;21143;-58
2022/04/13 10:13:36;;;;;;;14.40;7.60;;;;;;;16.88;30.83;98528.15;1748593;81;21277;-58
2022/04/13 10:16:07;;;;;;;14.95;7.95;;;;;;;16.75;31.17;98526.23;1733184;81;21055;-58
2022/04/13 10:18:59;;;;;;;10.55;6.97;;;;;;;16.61;30.94;98529.80;1744591;81;21623;-58
2022/04/13 10:21:44;;;;;;;14.03;7.10;;;;;;;16.49;32.05;98528.16;1754088;80;21135;-58
2022/04/13 10:24:22;;;;;;;13.25;7.80;;;;;;;16.43;31.67;98530.73;1756114;79;21095;-58
2022/04/13 10:27:12;;;;;;;11.15;7.47;;;;;;;16.29;32.40;98530.73;1751071;81;21837;-58
2022/04/13 10:29:41;;;;;;;10.30;6.78;;;;;;;16.05;31.92;98526.83;1750928;79;21468;-58
2022/04/13 10:32:22;;;;;;;13.15;6.65;;;;;;;16.01;31.76;98522.29;1748351;80;21086;-57
2022/04/13 10:34:49;;;;;;;12.58;7.85;;;;;;;16.10;32.11;98525.13;1764493;81;21544;-58
2022/04/13 10:37:20;;;;;;;8.98;6.40;;;;;;;16.19;32.58;98523.30;1750281;80;21137;-58
2022/04/13 10:39:47;;;;;;;11.55;7.00;;;;;;;16.12;32.40;98522.89;1746260;80;21874;-58
2022/04/13 10:42:16;;;;;;;14.00;7.28;;;;;;;16.14;32.74;98518.73;1747736;80;21125;-58
2022/04/13 10:44:43;;;;;;;;;;;;;;;16.24;32.13;98519.11;1752179;79;21043;-58
2022/04/13 10:47:12;;;;;;;11.38;6.25;;;;;;;16.16;33.54;98513.80;1747906;80;20238;-57
2022/04/13 10:50:02;;;;;;;20.45;7.67;;;;;;;16.18;32.74;98514.85;1741740;81;21146;-58
2022/04/13 10:52:44;;;;;;;9.93;6.35;;;;;;;16.16;32.41;98509.70;1742242;81;21313;-57
2022/04/13 10:55:11;;;;;;;10.38;6.75;;;;;;;16.13;32.47;98517.12;1740711;81;22148;-58
2022/04/13 10:57:52;;;;;;;11.38;6.45;;;;;;;15.98;32.28;98506.47;1760045;80;21052;-58
2022/04/13 11:00:19;;;;;;;10.15;6.87;;;;;;;16.14;31.95;98504.25;1752953;81;21144;-57
2022/04/13 11:03:06;;;;;;;11.35;6.08;;;;;;;16.24;32.29;98499.41;1757595;80;21036;-58
2022/04/13 11:05:31;;;;;;;9.63;6.33;;;;;;;16.25;32.31;98496.92;1754171;80;21292;-58
2022/04/13 11:08:08;;;;;;;10.30;6.75;;;;;;;16.31;32.60;98503.08;1752374;80;21059;-58
2022/04/13 11:10:35;;;;;;;13.62;6.00;;;;;;;16.07;31.82;98500.02;1748326;80;21045;-58
2022/04/13 11:13:01;;;;;;;9.28;6.17;;;;;;;16.05;32.44;98506.89;1729390;81;21183;-57
2022/04/13 11:15:46;;;;;;;12.00;6.75;;;;;;;16.01;32.59;98508.06;1754595;81;20971;-56
2022/04/13 11:18:16;;;;;;;9.28;7.12;;;;;;;16.06;32.70;98507.14;1764279;80;21530;-58
2022/04/13 11:21:02;;;;;;;8.58;6.22;;;;;;;16.05;32.32;98500.86;1762308;80;21079;-58
2022/04/13 11:23:52;;;;;;;11.25;6.50;;;;;;;16.13;32.28;98502.64;1751886;80;20981;-58
2022/04/13 11:26:41;;;;;;;10.65;6.67;;;;;;;16.28;33.12;98511.91;1752818;80;21066;-57